sensor_id;sensor_type;location;lat;lon;timestamp;P1;durP1;ratioP1;P2;durP2;ratioP2
70967;SDS011;58629;48.808;8.820;2022-09-21T00:00:44;2.20;;;1.10;;
70967;SDS011;58629;48.808;8.820;2022-09-21T00:03:09;1.50;;;0.90;;
70967;SDS011;58629;48.808;8.820;2022-09-21T00:05:35;2.10;;;1.00;;
70967;SDS011;58629;48.808;8.820;2022-09-21T00:08:02;1.47;;;0.80;;
70967;SDS011;58629;48.808;8.820;2022-09-21T00:10:28;1.92;;;0.98;;
70967;SDS011;58629;48.808;8.820;2022-09-21T00:12:55;1.00;;;0.70;;
70967;SDS011;58629;48.808;8.820;2022-09-21T00:15:21;1.45;;;0.90;;
70967;SDS011;58629;48.808;8.820;2022-09-21T00:17:46;1.47;;;0.80;;
70967;SDS011;58629;48.808;8.820;2022-09-21T00:20:13;1.20;;;0.85;;
70967;SDS011;58629;48.808;8.820;2022-09-21T00:22:39;1.50;;;0.93;;
70967;SDS011;58629;48.808;8.820;2022-09-21T00:25:04;1.60;;;1.00;;
70967;SDS011;58629;48.808;8.820;2022-09-21T00:27:30;1.55;;;1.00;;
70967;SDS011;58629;48.808;8.820;2022-09-21T00:29:59;1.67;;;0.90;;
70967;SDS011;58629;48.808;8.820;2022-09-21T00:32:28;1.98;;;1.00;;
70967;SDS011;58629;48.808;8.820;2022-09-21T00:34:57;2.07;;;1.00;;
70967;SDS011;58629;48.808;8.820;2022-09-21T00:37:24;1.55;;;1.02;;
70967;SDS011;58629;48.808;8.820;2022-09-21T00:39:50;4.45;;;2.20;;
70967;SDS011;58629;48.808;8.820;2022-09-21T00:42:17;3.50;;;1.93;;
70967;SDS011;58629;48.808;8.820;2022-09-21T00:44:47;2.03;;;1.20;;
70967;SDS011;58629;48.808;8.820;2022-09-21T00:47:13;2.03;;;1.30;;
70967;SDS011;58629;48.808;8.820;2022-09-21T00:49:41;1.90;;;1.00;;
70967;SDS011;58629;48.808;8.820;2022-09-21T00:52:09;2.03;;;1.10;;
70967;SDS011;58629;48.808;8.820;2022-09-21T00:54:42;1.52;;;0.82;;
70967;SDS011;58629;48.808;8.820;2022-09-21T00:57:13;1.88;;;1.00;;
70967;SDS011;58629;48.808;8.820;2022-09-21T00:59:41;1.83;;;1.00;;
70967;SDS011;58629;48.808;8.820;2022-09-21T01:02:08;2.70;;;1.60;;
70967;SDS011;58629;48.808;8.820;2022-09-21T01:04:34;2.72;;;1.30;;
70967;SDS011;58629;48.808;8.820;2022-09-21T01:07:02;2.05;;;1.13;;
70967;SDS011;58629;48.808;8.820;2022-09-21T01:09:36;2.00;;;0.95;;
70967;SDS011;58629;48.808;8.820;2022-09-21T01:23:15;2.08;;;1.10;;
70967;SDS011;58629;48.808;8.820;2022-09-21T01:31:33;2.20;;;1.00;;
70967;SDS011;58629;48.808;8.820;2022-09-21T01:34:06;4.30;;;2.15;;
70967;SDS011;58629;48.808;8.820;2022-09-21T01:36:35;2.70;;;1.50;;
70967;SDS011;58629;48.808;8.820;2022-09-21T01:39:07;3.33;;;1.60;;
70967;SDS011;58629;48.808;8.820;2022-09-21T01:41:36;2.83;;;1.30;;
70967;SDS011;58629;48.808;8.820;2022-09-21T01:44:08;4.30;;;1.98;;
70967;SDS011;58629;48.808;8.820;2022-09-21T01:46:39;4.20;;;1.70;;
70967;SDS011;58629;48.808;8.820;2022-09-21T01:49:05;3.67;;;1.80;;
70967;SDS011;58629;48.808;8.820;2022-09-21T01:51:35;3.25;;;1.50;;
70967;SDS011;58629;48.808;8.820;2022-09-21T01:54:07;2.43;;;1.20;;
70967;SDS011;58629;48.808;8.820;2022-09-21T01:56:38;3.08;;;1.40;;
70967;SDS011;58629;48.808;8.820;2022-09-21T02:01:57;4.90;;;1.73;;
70967;SDS011;58629;48.808;8.820;2022-09-21T02:04:27;2.45;;;1.20;;
70967;SDS011;58629;48.808;8.820;2022-09-21T02:06:53;1.90;;;1.00;;
70967;SDS011;58629;48.808;8.820;2022-09-21T02:09:19;2.63;;;1.15;;
70967;SDS011;58629;48.808;8.820;2022-09-21T02:11:44;2.97;;;1.30;;
70967;SDS011;58629;48.808;8.820;2022-09-21T02:14:10;2.27;;;1.00;;
70967;SDS011;58629;48.808;8.820;2022-09-21T02:23:08;2.90;;;1.50;;
70967;SDS011;58629;48.808;8.820;2022-09-21T02:28:21;1.95;;;1.20;;
70967;SDS011;58629;48.808;8.820;2022-09-21T02:30:54;1.60;;;1.00;;
70967;SDS011;58629;48.808;8.820;2022-09-21T02:33:28;2.13;;;1.23;;
70967;SDS011;58629;48.808;8.820;2022-09-21T02:36:03;1.83;;;1.07;;
70967;SDS011;58629;48.808;8.820;2022-09-21T02:38:41;2.20;;;1.17;;
70967;SDS011;58629;48.808;8.820;2022-09-21T02:42:00;1.40;;;0.70;;
70967;SDS011;58629;48.808;8.820;2022-09-21T02:44:18;1.60;;;0.88;;
70967;SDS011;58629;48.808;8.820;2022-09-21T02:46:49;1.95;;;1.10;;
70967;SDS011;58629;48.808;8.820;2022-09-21T02:49:29;2.63;;;1.40;;
70967;SDS011;58629;48.808;8.820;2022-09-21T02:52:01;1.60;;;1.00;;
70967;SDS011;58629;48.808;8.820;2022-09-21T02:54:30;2.55;;;1.50;;
70967;SDS011;58629;48.808;8.820;2022-09-21T02:56:57;2.30;;;1.20;;
70967;SDS011;58629;48.808;8.820;2022-09-21T02:59:25;2.90;;;1.55;;
70967;SDS011;58629;48.808;8.820;2022-09-21T03:01:51;2.23;;;1.10;;
70967;SDS011;58629;48.808;8.820;2022-09-21T03:04:17;1.90;;;1.02;;
70967;SDS011;58629;48.808;8.820;2022-09-21T03:06:43;2.47;;;1.10;;
70967;SDS011;58629;48.808;8.820;2022-09-21T03:09:08;1.77;;;0.90;;
70967;SDS011;58629;48.808;8.820;2022-09-21T03:11:34;3.07;;;1.30;;
70967;SDS011;58629;48.808;8.820;2022-09-21T03:14:03;2.97;;;1.20;;
70967;SDS011;58629;48.808;8.820;2022-09-21T03:16:33;2.88;;;1.10;;
70967;SDS011;58629;48.808;8.820;2022-09-21T03:18:59;2.35;;;1.40;;
70967;SDS011;58629;48.808;8.820;2022-09-21T03:21:24;1.90;;;0.80;;
70967;SDS011;58629;48.808;8.820;2022-09-21T03:23:50;2.60;;;1.03;;
70967;SDS011;58629;48.808;8.820;2022-09-21T03:26:15;2.00;;;1.10;;
70967;SDS011;58629;48.808;8.820;2022-09-21T03:28:40;2.00;;;1.03;;
70967;SDS011;58629;48.808;8.820;2022-09-21T03:31:06;1.80;;;1.10;;
70967;SDS011;58629;48.808;8.820;2022-09-21T03:33:31;1.73;;;1.00;;
70967;SDS011;58629;48.808;8.820;2022-09-21T03:35:57;2.10;;;1.20;;
70967;SDS011;58629;48.808;8.820;2022-09-21T03:38:22;1.90;;;0.82;;
70967;SDS011;58629;48.808;8.820;2022-09-21T03:40:49;1.83;;;1.00;;
70967;SDS011;58629;48.808;8.820;2022-09-21T03:43:15;1.40;;;0.77;;
70967;SDS011;58629;48.808;8.820;2022-09-21T03:45:41;2.33;;;1.08;;
70967;SDS011;58629;48.808;8.820;2022-09-21T03:48:07;1.77;;;1.00;;
70967;SDS011;58629;48.808;8.820;2022-09-21T03:50:34;1.55;;;0.80;;
70967;SDS011;58629;48.808;8.820;2022-09-21T03:52:59;1.40;;;0.90;;
70967;SDS011;58629;48.808;8.820;2022-09-21T03:55:25;4.00;;;2.50;;
70967;SDS011;58629;48.808;8.820;2022-09-21T03:57:50;2.60;;;2.00;;
70967;SDS011;58629;48.808;8.820;2022-09-21T04:00:16;2.63;;;1.40;;
70967;SDS011;58629;48.808;8.820;2022-09-21T04:02:42;1.80;;;1.30;;
70967;SDS011;58629;48.808;8.820;2022-09-21T04:05:08;2.15;;;1.60;;
70967;SDS011;58629;48.808;8.820;2022-09-21T04:07:35;2.22;;;1.30;;
70967;SDS011;58629;48.808;8.820;2022-09-21T04:10:02;1.80;;;1.20;;
70967;SDS011;58629;48.808;8.820;2022-09-21T04:12:30;3.83;;;2.20;;
70967;SDS011;58629;48.808;8.820;2022-09-21T04:14:56;3.30;;;1.52;;
70967;SDS011;58629;48.808;8.820;2022-09-21T04:17:22;2.70;;;1.60;;
70967;SDS011;58629;48.808;8.820;2022-09-21T04:19:47;2.53;;;1.40;;
70967;SDS011;58629;48.808;8.820;2022-09-21T04:22:13;2.08;;;1.30;;
70967;SDS011;58629;48.808;8.820;2022-09-21T04:24:38;4.63;;;2.13;;
70967;SDS011;58629;48.808;8.820;2022-09-21T04:27:05;2.75;;;1.70;;
70967;SDS011;58629;48.808;8.820;2022-09-21T04:29:34;2.47;;;1.60;;
70967;SDS011;58629;48.808;8.820;2022-09-21T04:32:00;2.70;;;1.40;;
70967;SDS011;58629;48.808;8.820;2022-09-21T04:34:25;2.20;;;1.30;;
70967;SDS011;58629;48.808;8.820;2022-09-21T04:36:51;1.88;;;1.20;;
70967;SDS011;58629;48.808;8.820;2022-09-21T04:39:18;1.80;;;0.97;;
70967;SDS011;58629;48.808;8.820;2022-09-21T04:41:43;2.67;;;1.30;;
70967;SDS011;58629;48.808;8.820;2022-09-21T04:44:09;2.00;;;1.30;;
70967;SDS011;58629;48.808;8.820;2022-09-21T04:46:34;2.17;;;1.20;;
70967;SDS011;58629;48.808;8.820;2022-09-21T04:48:59;7.40;;;4.20;;
70967;SDS011;58629;48.808;8.820;2022-09-21T04:51:25;7.43;;;4.03;;
70967;SDS011;58629;48.808;8.820;2022-09-21T04:53:50;6.33;;;3.60;;
70967;SDS011;58629;48.808;8.820;2022-09-21T04:56:15;5.70;;;3.70;;
70967;SDS011;58629;48.808;8.820;2022-09-21T04:58:41;4.70;;;3.05;;
70967;SDS011;58629;48.808;8.820;2022-09-21T05:01:07;4.50;;;2.60;;
70967;SDS011;58629;48.808;8.820;2022-09-21T05:03:32;4.40;;;2.53;;
70967;SDS011;58629;48.808;8.820;2022-09-21T05:05:57;6.80;;;2.80;;
70967;SDS011;58629;48.808;8.820;2022-09-21T05:08:24;4.90;;;2.63;;
70967;SDS011;58629;48.808;8.820;2022-09-21T05:11:13;6.53;;;2.70;;
70967;SDS011;58629;48.808;8.820;2022-09-21T05:13:42;8.20;;;5.03;;
70967;SDS011;58629;48.808;8.820;2022-09-21T05:16:07;6.87;;;4.77;;
70967;SDS011;58629;48.808;8.820;2022-09-21T05:18:33;7.83;;;3.90;;
70967;SDS011;58629;48.808;8.820;2022-09-21T05:20:59;5.15;;;3.08;;
70967;SDS011;58629;48.808;8.820;2022-09-21T05:23:26;7.73;;;4.43;;
70967;SDS011;58629;48.808;8.820;2022-09-21T05:25:54;6.57;;;3.60;;
70967;SDS011;58629;48.808;8.820;2022-09-21T05:28:20;4.30;;;3.00;;
70967;SDS011;58629;48.808;8.820;2022-09-21T05:30:47;4.78;;;2.78;;
70967;SDS011;58629;48.808;8.820;2022-09-21T05:33:21;3.97;;;2.92;;
70967;SDS011;58629;48.808;8.820;2022-09-21T05:36:11;4.90;;;2.92;;
70967;SDS011;58629;48.808;8.820;2022-09-21T05:39:06;3.90;;;2.42;;
70967;SDS011;58629;48.808;8.820;2022-09-21T05:41:32;3.87;;;2.30;;
70967;SDS011;58629;48.808;8.820;2022-09-21T05:43:58;3.78;;;2.05;;
70967;SDS011;58629;48.808;8.820;2022-09-21T05:52:15;5.38;;;3.20;;
70967;SDS011;58629;48.808;8.820;2022-09-21T05:55:00;4.72;;;2.60;;
70967;SDS011;58629;48.808;8.820;2022-09-21T05:57:50;3.90;;;2.58;;
70967;SDS011;58629;48.808;8.820;2022-09-21T06:00:40;3.90;;;2.00;;
70967;SDS011;58629;48.808;8.820;2022-09-21T06:05:53;3.72;;;2.10;;
70967;SDS011;58629;48.808;8.820;2022-09-21T06:08:18;2.83;;;1.90;;
70967;SDS011;58629;48.808;8.820;2022-09-21T06:10:44;2.80;;;1.80;;
70967;SDS011;58629;48.808;8.820;2022-09-21T06:13:09;2.90;;;1.80;;
70967;SDS011;58629;48.808;8.820;2022-09-21T06:15:35;3.67;;;1.90;;
70967;SDS011;58629;48.808;8.820;2022-09-21T06:18:02;2.38;;;1.60;;
70967;SDS011;58629;48.808;8.820;2022-09-21T06:20:31;3.80;;;2.20;;
70967;SDS011;58629;48.808;8.820;2022-09-21T06:23:00;4.50;;;2.70;;
70967;SDS011;58629;48.808;8.820;2022-09-21T06:25:30;3.45;;;1.95;;
70967;SDS011;58629;48.808;8.820;2022-09-21T06:28:06;2.87;;;1.83;;
70967;SDS011;58629;48.808;8.820;2022-09-21T06:30:35;1.98;;;1.50;;
70967;SDS011;58629;48.808;8.820;2022-09-21T06:33:01;2.83;;;1.60;;
70967;SDS011;58629;48.808;8.820;2022-09-21T06:35:28;2.45;;;1.45;;
70967;SDS011;58629;48.808;8.820;2022-09-21T06:37:58;2.85;;;1.73;;
70967;SDS011;58629;48.808;8.820;2022-09-21T06:40:26;4.13;;;2.67;;
70967;SDS011;58629;48.808;8.820;2022-09-21T06:42:55;4.63;;;2.53;;
70967;SDS011;58629;48.808;8.820;2022-09-21T06:45:22;3.03;;;1.98;;
70967;SDS011;58629;48.808;8.820;2022-09-21T06:47:48;5.38;;;2.97;;
70967;SDS011;58629;48.808;8.820;2022-09-21T06:50:14;4.20;;;2.43;;
70967;SDS011;58629;48.808;8.820;2022-09-21T06:52:39;3.83;;;2.40;;
70967;SDS011;58629;48.808;8.820;2022-09-21T06:55:06;3.17;;;2.00;;
70967;SDS011;58629;48.808;8.820;2022-09-21T06:57:32;3.78;;;1.90;;
70967;SDS011;58629;48.808;8.820;2022-09-21T06:59:57;3.07;;;1.83;;
70967;SDS011;58629;48.808;8.820;2022-09-21T07:02:23;3.63;;;2.08;;
70967;SDS011;58629;48.808;8.820;2022-09-21T07:04:48;5.77;;;2.60;;
70967;SDS011;58629;48.808;8.820;2022-09-21T07:07:13;4.83;;;2.60;;
70967;SDS011;58629;48.808;8.820;2022-09-21T07:09:39;6.13;;;2.73;;
70967;SDS011;58629;48.808;8.820;2022-09-21T07:12:05;4.33;;;2.40;;
70967;SDS011;58629;48.808;8.820;2022-09-21T07:14:31;5.32;;;2.45;;
70967;SDS011;58629;48.808;8.820;2022-09-21T07:16:57;4.60;;;2.77;;
70967;SDS011;58629;48.808;8.820;2022-09-21T07:19:22;4.07;;;2.50;;
70967;SDS011;58629;48.808;8.820;2022-09-21T07:21:47;3.80;;;2.20;;
70967;SDS011;58629;48.808;8.820;2022-09-21T07:24:13;4.23;;;2.40;;
70967;SDS011;58629;48.808;8.820;2022-09-21T07:26:39;4.38;;;2.10;;
70967;SDS011;58629;48.808;8.820;2022-09-21T07:29:04;4.07;;;2.30;;
70967;SDS011;58629;48.808;8.820;2022-09-21T07:31:30;4.10;;;2.30;;
70967;SDS011;58629;48.808;8.820;2022-09-21T07:33:55;4.00;;;2.30;;
70967;SDS011;58629;48.808;8.820;2022-09-21T07:36:22;3.97;;;1.90;;
70967;SDS011;58629;48.808;8.820;2022-09-21T07:38:48;3.07;;;2.00;;
70967;SDS011;58629;48.808;8.820;2022-09-21T07:41:13;2.80;;;1.50;;
70967;SDS011;58629;48.808;8.820;2022-09-21T07:43:39;3.53;;;2.17;;
70967;SDS011;58629;48.808;8.820;2022-09-21T07:46:05;3.33;;;2.10;;
70967;SDS011;58629;48.808;8.820;2022-09-21T07:48:31;4.05;;;2.58;;
70967;SDS011;58629;48.808;8.820;2022-09-21T07:51:03;5.87;;;3.73;;
70967;SDS011;58629;48.808;8.820;2022-09-21T07:53:36;6.05;;;3.30;;
70967;SDS011;58629;48.808;8.820;2022-09-21T07:56:04;5.37;;;3.03;;
70967;SDS011;58629;48.808;8.820;2022-09-21T07:58:30;4.20;;;2.80;;
70967;SDS011;58629;48.808;8.820;2022-09-21T08:01:14;4.35;;;2.80;;
70967;SDS011;58629;48.808;8.820;2022-09-21T08:03:40;4.40;;;2.55;;
70967;SDS011;58629;48.808;8.820;2022-09-21T08:06:05;5.40;;;3.17;;
70967;SDS011;58629;48.808;8.820;2022-09-21T08:08:31;4.25;;;2.67;;
70967;SDS011;58629;48.808;8.820;2022-09-21T08:11:03;4.60;;;2.60;;
70967;SDS011;58629;48.808;8.820;2022-09-21T08:13:30;5.07;;;3.10;;
70967;SDS011;58629;48.808;8.820;2022-09-21T08:15:56;12.40;;;6.10;;
70967;SDS011;58629;48.808;8.820;2022-09-21T08:18:23;8.13;;;4.75;;
70967;SDS011;58629;48.808;8.820;2022-09-21T08:20:58;8.20;;;4.33;;
70967;SDS011;58629;48.808;8.820;2022-09-21T08:23:25;6.07;;;3.50;;
70967;SDS011;58629;48.808;8.820;2022-09-21T08:25:56;5.47;;;2.90;;
70967;SDS011;58629;48.808;8.820;2022-09-21T08:28:24;4.25;;;2.47;;
70967;SDS011;58629;48.808;8.820;2022-09-21T08:30:49;5.03;;;2.90;;
70967;SDS011;58629;48.808;8.820;2022-09-21T08:33:14;3.90;;;2.27;;
70967;SDS011;58629;48.808;8.820;2022-09-21T08:35:40;3.20;;;2.13;;
70967;SDS011;58629;48.808;8.820;2022-09-21T08:38:05;4.43;;;2.50;;
70967;SDS011;58629;48.808;8.820;2022-09-21T08:40:31;2.93;;;2.10;;
70967;SDS011;58629;48.808;8.820;2022-09-21T08:42:58;6.63;;;2.55;;
70967;SDS011;58629;48.808;8.820;2022-09-21T08:45:43;4.68;;;1.85;;
70967;SDS011;58629;48.808;8.820;2022-09-21T08:48:14;3.17;;;1.50;;
70967;SDS011;58629;48.808;8.820;2022-09-21T08:50:45;3.08;;;1.23;;
70967;SDS011;58629;48.808;8.820;2022-09-21T08:53:18;1.90;;;1.10;;
70967;SDS011;58629;48.808;8.820;2022-09-21T08:55:48;2.90;;;1.30;;
70967;SDS011;58629;48.808;8.820;2022-09-21T08:58:23;2.83;;;1.20;;
70967;SDS011;58629;48.808;8.820;2022-09-21T09:00:55;1.92;;;1.02;;
70967;SDS011;58629;48.808;8.820;2022-09-21T09:03:55;2.00;;;1.08;;
70967;SDS011;58629;48.808;8.820;2022-09-21T09:06:40;3.03;;;1.25;;
70967;SDS011;58629;48.808;8.820;2022-09-21T09:09:37;2.85;;;1.00;;
70967;SDS011;58629;48.808;8.820;2022-09-21T09:15:17;1.33;;;0.80;;
70967;SDS011;58629;48.808;8.820;2022-09-21T09:20:39;3.08;;;0.60;;
70967;SDS011;58629;48.808;8.820;2022-09-21T09:23:16;1.45;;;0.50;;
70967;SDS011;58629;48.808;8.820;2022-09-21T09:25:45;1.58;;;0.70;;
70967;SDS011;58629;48.808;8.820;2022-09-21T09:30:50;0.95;;;0.50;;
70967;SDS011;58629;48.808;8.820;2022-09-21T09:33:23;1.63;;;0.70;;
70967;SDS011;58629;48.808;8.820;2022-09-21T09:36:02;2.47;;;1.00;;
70967;SDS011;58629;48.808;8.820;2022-09-21T09:38:35;0.80;;;0.65;;
70967;SDS011;58629;48.808;8.820;2022-09-21T09:49:39;1.52;;;0.70;;
70967;SDS011;58629;48.808;8.820;2022-09-21T09:52:24;1.42;;;0.65;;
70967;SDS011;58629;48.808;8.820;2022-09-21T09:54:49;1.23;;;0.87;;
70967;SDS011;58629;48.808;8.820;2022-09-21T09:57:25;2.20;;;1.20;;
70967;SDS011;58629;48.808;8.820;2022-09-21T09:59:54;1.27;;;0.80;;
70967;SDS011;58629;48.808;8.820;2022-09-21T10:02:24;1.58;;;0.70;;
70967;SDS011;58629;48.808;8.820;2022-09-21T10:04:58;2.50;;;1.00;;
70967;SDS011;58629;48.808;8.820;2022-09-21T10:07:33;1.52;;;0.88;;
70967;SDS011;58629;48.808;8.820;2022-09-21T10:13:07;1.73;;;0.80;;
70967;SDS011;58629;48.808;8.820;2022-09-21T10:15:41;1.95;;;1.00;;
70967;SDS011;58629;48.808;8.820;2022-09-21T10:20:38;1.00;;;0.80;;
70967;SDS011;58629;48.808;8.820;2022-09-21T10:23:03;1.63;;;0.80;;
70967;SDS011;58629;48.808;8.820;2022-09-21T10:25:29;1.60;;;0.70;;
70967;SDS011;58629;48.808;8.820;2022-09-21T10:27:55;1.15;;;0.60;;
70967;SDS011;58629;48.808;8.820;2022-09-21T10:30:34;1.98;;;0.77;;
70967;SDS011;58629;48.808;8.820;2022-09-21T10:33:02;0.93;;;0.50;;
70967;SDS011;58629;48.808;8.820;2022-09-21T10:35:49;0.68;;;0.30;;
70967;SDS011;58629;48.808;8.820;2022-09-21T10:38:16;1.48;;;0.63;;
70967;SDS011;58629;48.808;8.820;2022-09-21T10:40:43;1.65;;;0.50;;
70967;SDS011;58629;48.808;8.820;2022-09-21T10:43:32;1.90;;;0.60;;
70967;SDS011;58629;48.808;8.820;2022-09-21T10:46:00;1.95;;;0.80;;
70967;SDS011;58629;48.808;8.820;2022-09-21T10:48:26;1.60;;;0.80;;
70967;SDS011;58629;48.808;8.820;2022-09-21T10:50:53;2.22;;;1.17;;
70967;SDS011;58629;48.808;8.820;2022-09-21T10:53:24;1.45;;;0.80;;
70967;SDS011;58629;48.808;8.820;2022-09-21T10:58:36;1.10;;;0.77;;
70967;SDS011;58629;48.808;8.820;2022-09-21T11:01:11;1.57;;;0.80;;
70967;SDS011;58629;48.808;8.820;2022-09-21T11:03:49;1.25;;;0.70;;
70967;SDS011;58629;48.808;8.820;2022-09-21T11:06:32;1.05;;;0.52;;
70967;SDS011;58629;48.808;8.820;2022-09-21T11:09:08;1.17;;;0.60;;
70967;SDS011;58629;48.808;8.820;2022-09-21T11:25:30;0.95;;;0.50;;
70967;SDS011;58629;48.808;8.820;2022-09-21T11:28:05;0.90;;;0.70;;
70967;SDS011;58629;48.808;8.820;2022-09-21T11:30:43;1.20;;;0.70;;
70967;SDS011;58629;48.808;8.820;2022-09-21T11:36:34;1.13;;;0.80;;
70967;SDS011;58629;48.808;8.820;2022-09-21T11:39:29;1.23;;;0.63;;
70967;SDS011;58629;48.808;8.820;2022-09-21T11:44:45;1.63;;;1.03;;
70967;SDS011;58629;48.808;8.820;2022-09-21T11:49:56;1.73;;;0.80;;
70967;SDS011;58629;48.808;8.820;2022-09-21T11:52:54;1.60;;;0.75;;
70967;SDS011;58629;48.808;8.820;2022-09-21T11:58:20;1.40;;;0.80;;
70967;SDS011;58629;48.808;8.820;2022-09-21T12:01:06;1.45;;;1.00;;
70967;SDS011;58629;48.808;8.820;2022-09-21T12:03:38;1.73;;;0.98;;
70967;SDS011;58629;48.808;8.820;2022-09-21T12:06:19;1.58;;;0.70;;
70967;SDS011;58629;48.808;8.820;2022-09-21T12:17:27;1.00;;;0.85;;
70967;SDS011;58629;48.808;8.820;2022-09-21T12:20:16;1.10;;;0.90;;
70967;SDS011;58629;48.808;8.820;2022-09-21T12:22:55;1.05;;;0.80;;
70967;SDS011;58629;48.808;8.820;2022-09-21T12:25:26;2.40;;;0.90;;
70967;SDS011;58629;48.808;8.820;2022-09-21T12:30:25;1.52;;;1.10;;
70967;SDS011;58629;48.808;8.820;2022-09-21T12:33:05;2.33;;;1.00;;
70967;SDS011;58629;48.808;8.820;2022-09-21T12:36:01;0.75;;;0.50;;
70967;SDS011;58629;48.808;8.820;2022-09-21T12:38:42;1.30;;;0.90;;
70967;SDS011;58629;48.808;8.820;2022-09-21T12:46:41;1.25;;;0.80;;
70967;SDS011;58629;48.808;8.820;2022-09-21T12:49:16;2.38;;;1.20;;
70967;SDS011;58629;48.808;8.820;2022-09-21T12:51:52;1.93;;;0.93;;
70967;SDS011;58629;48.808;8.820;2022-09-21T13:05:03;1.23;;;0.60;;
70967;SDS011;58629;48.808;8.820;2022-09-21T13:13:29;0.80;;;0.50;;
70967;SDS011;58629;48.808;8.820;2022-09-21T13:16:01;1.05;;;0.40;;
70967;SDS011;58629;48.808;8.820;2022-09-21T13:18:36;0.60;;;0.50;;
70967;SDS011;58629;48.808;8.820;2022-09-21T13:21:16;0.73;;;0.55;;
70967;SDS011;58629;48.808;8.820;2022-09-21T13:23:49;1.60;;;0.52;;
70967;SDS011;58629;48.808;8.820;2022-09-21T13:26:38;0.60;;;0.45;;
70967;SDS011;58629;48.808;8.820;2022-09-21T13:31:58;0.80;;;0.43;;
70967;SDS011;58629;48.808;8.820;2022-09-21T13:34:37;0.85;;;0.50;;
70967;SDS011;58629;48.808;8.820;2022-09-21T13:47:38;0.63;;;0.43;;
70967;SDS011;58629;48.808;8.820;2022-09-21T13:52:55;1.75;;;0.40;;
70967;SDS011;58629;48.808;8.820;2022-09-21T13:55:27;2.88;;;0.50;;
70967;SDS011;58629;48.808;8.820;2022-09-21T13:57:56;0.77;;;0.40;;
70967;SDS011;58629;48.808;8.820;2022-09-21T14:00:42;0.60;;;0.40;;
70967;SDS011;58629;48.808;8.820;2022-09-21T14:03:20;0.47;;;0.38;;
70967;SDS011;58629;48.808;8.820;2022-09-21T14:05:49;0.77;;;0.50;;
70967;SDS011;58629;48.808;8.820;2022-09-21T14:08:22;0.65;;;0.43;;
70967;SDS011;58629;48.808;8.820;2022-09-21T14:10:54;1.08;;;0.50;;
70967;SDS011;58629;48.808;8.820;2022-09-21T14:18:53;1.73;;;0.90;;
70967;SDS011;58629;48.808;8.820;2022-09-21T14:21:19;0.82;;;0.60;;
70967;SDS011;58629;48.808;8.820;2022-09-21T14:27:40;0.73;;;0.40;;
70967;SDS011;58629;48.808;8.820;2022-09-21T14:32:41;1.20;;;0.47;;
70967;SDS011;58629;48.808;8.820;2022-09-21T14:35:12;0.60;;;0.60;;
70967;SDS011;58629;48.808;8.820;2022-09-21T14:37:46;1.27;;;0.50;;
70967;SDS011;58629;48.808;8.820;2022-09-21T14:40:23;0.60;;;0.40;;
70967;SDS011;58629;48.808;8.820;2022-09-21T14:42:52;0.68;;;0.40;;
70967;SDS011;58629;48.808;8.820;2022-09-21T14:45:19;0.90;;;0.57;;
70967;SDS011;58629;48.808;8.820;2022-09-21T14:48:12;1.50;;;0.70;;
70967;SDS011;58629;48.808;8.820;2022-09-21T14:50:53;1.00;;;0.55;;
70967;SDS011;58629;48.808;8.820;2022-09-21T14:53:39;0.75;;;0.50;;
70967;SDS011;58629;48.808;8.820;2022-09-21T15:04:54;0.98;;;0.50;;
70967;SDS011;58629;48.808;8.820;2022-09-21T15:14:10;1.23;;;0.68;;
70967;SDS011;58629;48.808;8.820;2022-09-21T15:16:41;1.15;;;0.80;;
70967;SDS011;58629;48.808;8.820;2022-09-21T15:19:28;0.60;;;0.57;;
70967;SDS011;58629;48.808;8.820;2022-09-21T15:22:17;0.80;;;0.60;;
70967;SDS011;58629;48.808;8.820;2022-09-21T15:24:51;1.23;;;0.80;;
70967;SDS011;58629;48.808;8.820;2022-09-21T15:27:19;1.45;;;0.60;;
70967;SDS011;58629;48.808;8.820;2022-09-21T15:29:50;2.22;;;0.60;;
70967;SDS011;58629;48.808;8.820;2022-09-21T15:32:23;0.50;;;0.43;;
70967;SDS011;58629;48.808;8.820;2022-09-21T15:34:56;0.80;;;0.50;;
70967;SDS011;58629;48.808;8.820;2022-09-21T15:37:25;0.70;;;0.40;;
70967;SDS011;58629;48.808;8.820;2022-09-21T15:39:58;0.57;;;0.40;;
70967;SDS011;58629;48.808;8.820;2022-09-21T15:42:25;0.50;;;0.50;;
70967;SDS011;58629;48.808;8.820;2022-09-21T15:44:53;0.50;;;0.50;;
70967;SDS011;58629;48.808;8.820;2022-09-21T15:47:33;0.85;;;0.30;;
70967;SDS011;58629;48.808;8.820;2022-09-21T15:49:59;0.60;;;0.40;;
70967;SDS011;58629;48.808;8.820;2022-09-21T15:52:35;0.70;;;0.40;;
70967;SDS011;58629;48.808;8.820;2022-09-21T15:55:10;0.70;;;0.40;;
70967;SDS011;58629;48.808;8.820;2022-09-21T15:57:45;0.63;;;0.40;;
70967;SDS011;58629;48.808;8.820;2022-09-21T16:02:49;0.52;;;0.40;;
70967;SDS011;58629;48.808;8.820;2022-09-21T16:05:20;0.30;;;0.30;;
70967;SDS011;58629;48.808;8.820;2022-09-21T16:07:46;0.30;;;0.30;;
70967;SDS011;58629;48.808;8.820;2022-09-21T16:12:59;1.15;;;0.30;;
70967;SDS011;58629;48.808;8.820;2022-09-21T16:16:00;0.75;;;0.30;;
70967;SDS011;58629;48.808;8.820;2022-09-21T16:18:31;0.40;;;0.30;;
70967;SDS011;58629;48.808;8.820;2022-09-21T16:21:26;1.02;;;0.50;;
70967;SDS011;58629;48.808;8.820;2022-09-21T16:23:54;0.95;;;0.50;;
70967;SDS011;58629;48.808;8.820;2022-09-21T16:26:23;0.75;;;0.50;;
70967;SDS011;58629;48.808;8.820;2022-09-21T16:28:54;0.47;;;0.40;;
70967;SDS011;58629;48.808;8.820;2022-09-21T16:38:44;13.75;;;5.70;;
70967;SDS011;58629;48.808;8.820;2022-09-21T16:41:11;8.05;;;3.10;;
70967;SDS011;58629;48.808;8.820;2022-09-21T16:43:37;8.10;;;2.78;;
70967;SDS011;58629;48.808;8.820;2022-09-21T16:46:06;3.80;;;1.58;;
70967;SDS011;58629;48.808;8.820;2022-09-21T16:48:32;2.53;;;1.00;;
70967;SDS011;58629;48.808;8.820;2022-09-21T16:50:57;1.67;;;0.70;;
70967;SDS011;58629;48.808;8.820;2022-09-21T16:53:23;0.77;;;0.60;;
70967;SDS011;58629;48.808;8.820;2022-09-21T16:55:50;1.20;;;0.40;;
70967;SDS011;58629;48.808;8.820;2022-09-21T16:58:17;1.17;;;0.52;;
70967;SDS011;58629;48.808;8.820;2022-09-21T17:00:44;1.88;;;0.60;;
70967;SDS011;58629;48.808;8.820;2022-09-21T17:03:11;1.40;;;0.40;;
70967;SDS011;58629;48.808;8.820;2022-09-21T17:05:39;0.98;;;0.40;;
70967;SDS011;58629;48.808;8.820;2022-09-21T17:08:04;1.03;;;0.50;;
70967;SDS011;58629;48.808;8.820;2022-09-21T17:10:30;0.43;;;0.40;;
70967;SDS011;58629;48.808;8.820;2022-09-21T17:13:01;0.60;;;0.40;;
70967;SDS011;58629;48.808;8.820;2022-09-21T17:15:29;0.85;;;0.50;;
70967;SDS011;58629;48.808;8.820;2022-09-21T17:17:55;0.60;;;0.40;;
70967;SDS011;58629;48.808;8.820;2022-09-21T17:20:29;1.60;;;0.70;;
70967;SDS011;58629;48.808;8.820;2022-09-21T17:22:59;1.85;;;0.98;;
70967;SDS011;58629;48.808;8.820;2022-09-21T17:25:27;2.90;;;1.65;;
70967;SDS011;58629;48.808;8.820;2022-09-21T17:27:54;4.80;;;2.42;;
70967;SDS011;58629;48.808;8.820;2022-09-21T17:30:22;6.15;;;3.10;;
70967;SDS011;58629;48.808;8.820;2022-09-21T17:32:49;4.10;;;2.50;;
70967;SDS011;58629;48.808;8.820;2022-09-21T17:37:43;3.47;;;1.75;;
70967;SDS011;58629;48.808;8.820;2022-09-21T17:40:08;3.38;;;1.30;;
70967;SDS011;58629;48.808;8.820;2022-09-21T17:42:37;2.93;;;1.30;;
70967;SDS011;58629;48.808;8.820;2022-09-21T17:48:00;1.90;;;1.40;;
70967;SDS011;58629;48.808;8.820;2022-09-21T17:50:26;1.92;;;1.27;;
70967;SDS011;58629;48.808;8.820;2022-09-21T17:52:52;1.80;;;1.00;;
70967;SDS011;58629;48.808;8.820;2022-09-21T17:55:37;1.42;;;0.90;;
70967;SDS011;58629;48.808;8.820;2022-09-21T18:03:37;1.02;;;0.63;;
70967;SDS011;58629;48.808;8.820;2022-09-21T18:06:07;1.58;;;0.70;;
70967;SDS011;58629;48.808;8.820;2022-09-21T18:08:34;1.48;;;0.68;;
70967;SDS011;58629;48.808;8.820;2022-09-21T18:16:30;2.45;;;0.80;;
70967;SDS011;58629;48.808;8.820;2022-09-21T18:19:23;0.80;;;0.80;;
70967;SDS011;58629;48.808;8.820;2022-09-21T18:22:29;1.10;;;1.00;;